PILOTS ONLINE: 322    ATC ONLINE: 53

Location

IATA YRL
City Red Lake
Country  Canada
Latitude 51° 4' 0" N
Longitude 93° 47' 35" W
Elevation 1265 ft
Type Medium Airport

Weather

METAR
2014/07/10 12:00
CYRL 101200Z 16004KT 15SM SCT240 13/11 A2996 RMK CI3 SLP150
TAF
2014/07/10 11:42
TAF CYRL 101038Z 1011/1023 VRB03KT P6SM FEW240 
      BECMG 1015/1017 20010KT 
      RMK NXT FCST BY 101400Z

Runways

08/26 5000 ft / 150 ft

Outbound flights

Inbound flights


Spotted incorrect airport information? Please login with your VATSIM ID.